sensor_id;sensor_type;location;lat;lon;timestamp;P1;durP1;ratioP1;P2;durP2;ratioP2
15049;SDS011;7622;42.724;23.250;2023-05-10T00:01:26;4.43;;;4.03;;
15049;SDS011;7622;42.724;23.250;2023-05-10T00:03:53;4.97;;;4.40;;
15049;SDS011;7622;42.724;23.250;2023-05-10T00:06:20;5.43;;;4.70;;
15049;SDS011;7622;42.724;23.250;2023-05-10T00:08:47;5.10;;;4.70;;
15049;SDS011;7622;42.724;23.250;2023-05-10T00:11:13;4.93;;;4.53;;
15049;SDS011;7622;42.724;23.250;2023-05-10T00:13:40;5.40;;;4.90;;
15049;SDS011;7622;42.724;23.250;2023-05-10T00:16:08;5.97;;;5.03;;
15049;SDS011;7622;42.724;23.250;2023-05-10T00:18:35;5.83;;;5.33;;
15049;SDS011;7622;42.724;23.250;2023-05-10T00:21:02;6.70;;;6.10;;
15049;SDS011;7622;42.724;23.250;2023-05-10T00:23:29;8.03;;;6.77;;
15049;SDS011;7622;42.724;23.250;2023-05-10T00:25:56;6.63;;;6.13;;
15049;SDS011;7622;42.724;23.250;2023-05-10T00:28:22;7.07;;;6.47;;
15049;SDS011;7622;42.724;23.250;2023-05-10T00:30:49;7.37;;;6.77;;
15049;SDS011;7622;42.724;23.250;2023-05-10T00:33:17;7.57;;;6.93;;
15049;SDS011;7622;42.724;23.250;2023-05-10T00:35:44;6.73;;;6.20;;
15049;SDS011;7622;42.724;23.250;2023-05-10T00:38:11;7.53;;;6.83;;
15049;SDS011;7622;42.724;23.250;2023-05-10T00:40:37;8.27;;;7.67;;
15049;SDS011;7622;42.724;23.250;2023-05-10T00:43:04;7.00;;;6.40;;
15049;SDS011;7622;42.724;23.250;2023-05-10T00:45:31;7.47;;;6.87;;
15049;SDS011;7622;42.724;23.250;2023-05-10T00:47:59;6.53;;;6.03;;
15049;SDS011;7622;42.724;23.250;2023-05-10T00:50:30;6.93;;;6.33;;
15049;SDS011;7622;42.724;23.250;2023-05-10T00:52:57;7.57;;;6.87;;
15049;SDS011;7622;42.724;23.250;2023-05-10T00:55:25;7.10;;;6.50;;
15049;SDS011;7622;42.724;23.250;2023-05-10T00:57:53;8.37;;;7.67;;
15049;SDS011;7622;42.724;23.250;2023-05-10T01:00:19;9.53;;;8.70;;
15049;SDS011;7622;42.724;23.250;2023-05-10T01:02:46;9.50;;;8.30;;
15049;SDS011;7622;42.724;23.250;2023-05-10T01:05:14;8.70;;;7.80;;
15049;SDS011;7622;42.724;23.250;2023-05-10T01:07:42;8.00;;;7.40;;
15049;SDS011;7622;42.724;23.250;2023-05-10T01:10:09;9.00;;;8.10;;
15049;SDS011;7622;42.724;23.250;2023-05-10T01:12:37;8.27;;;7.53;;
15049;SDS011;7622;42.724;23.250;2023-05-10T01:15:06;8.70;;;8.00;;
15049;SDS011;7622;42.724;23.250;2023-05-10T01:17:34;8.13;;;7.43;;
15049;SDS011;7622;42.724;23.250;2023-05-10T01:20:02;9.77;;;8.87;;
15049;SDS011;7622;42.724;23.250;2023-05-10T01:22:42;7.53;;;6.83;;
15049;SDS011;7622;42.724;23.250;2023-05-10T01:25:32;11.03;;;8.23;;
15049;SDS011;7622;42.724;23.250;2023-05-10T01:28:17;8.53;;;7.73;;
15049;SDS011;7622;42.724;23.250;2023-05-10T01:31:04;8.10;;;7.37;;
15049;SDS011;7622;42.724;23.250;2023-05-10T01:33:51;8.10;;;7.40;;
15049;SDS011;7622;42.724;23.250;2023-05-10T01:36:23;7.53;;;6.80;;
15049;SDS011;7622;42.724;23.250;2023-05-10T01:38:57;8.67;;;7.97;;
15049;SDS011;7622;42.724;23.250;2023-05-10T01:41:31;8.40;;;7.53;;
15049;SDS011;7622;42.724;23.250;2023-05-10T01:44:09;8.20;;;7.43;;
15049;SDS011;7622;42.724;23.250;2023-05-10T01:46:43;8.03;;;7.40;;
15049;SDS011;7622;42.724;23.250;2023-05-10T01:49:17;8.13;;;7.33;;
15049;SDS011;7622;42.724;23.250;2023-05-10T01:51:50;8.40;;;7.70;;
15049;SDS011;7622;42.724;23.250;2023-05-10T01:54:20;7.83;;;7.23;;
15049;SDS011;7622;42.724;23.250;2023-05-10T01:56:50;7.37;;;6.77;;
15049;SDS011;7622;42.724;23.250;2023-05-10T01:59:22;5.90;;;5.50;;
15049;SDS011;7622;42.724;23.250;2023-05-10T02:01:54;6.80;;;5.90;;
15049;SDS011;7622;42.724;23.250;2023-05-10T02:04:25;6.13;;;5.63;;
15049;SDS011;7622;42.724;23.250;2023-05-10T02:06:53;6.10;;;5.50;;
15049;SDS011;7622;42.724;23.250;2023-05-10T02:09:21;6.57;;;6.07;;
15049;SDS011;7622;42.724;23.250;2023-05-10T02:11:51;6.00;;;5.60;;
15049;SDS011;7622;42.724;23.250;2023-05-10T02:14:20;6.60;;;6.00;;
15049;SDS011;7622;42.724;23.250;2023-05-10T02:16:49;5.43;;;5.03;;
15049;SDS011;7622;42.724;23.250;2023-05-10T02:19:18;5.97;;;5.57;;
15049;SDS011;7622;42.724;23.250;2023-05-10T02:21:48;6.03;;;5.47;;
15049;SDS011;7622;42.724;23.250;2023-05-10T02:24:17;5.30;;;4.90;;
15049;SDS011;7622;42.724;23.250;2023-05-10T02:26:45;5.90;;;5.50;;
15049;SDS011;7622;42.724;23.250;2023-05-10T02:29:15;5.63;;;5.13;;
15049;SDS011;7622;42.724;23.250;2023-05-10T02:31:43;5.80;;;5.30;;
15049;SDS011;7622;42.724;23.250;2023-05-10T02:34:10;5.93;;;5.53;;
15049;SDS011;7622;42.724;23.250;2023-05-10T02:36:38;4.70;;;4.40;;
15049;SDS011;7622;42.724;23.250;2023-05-10T02:39:07;5.87;;;5.47;;
15049;SDS011;7622;42.724;23.250;2023-05-10T02:41:37;4.37;;;4.13;;
15049;SDS011;7622;42.724;23.250;2023-05-10T02:44:06;5.30;;;4.90;;
15049;SDS011;7622;42.724;23.250;2023-05-10T02:46:35;5.70;;;5.30;;
15049;SDS011;7622;42.724;23.250;2023-05-10T02:49:02;3.90;;;3.60;;
15049;SDS011;7622;42.724;23.250;2023-05-10T02:51:31;5.43;;;5.03;;
15049;SDS011;7622;42.724;23.250;2023-05-10T02:54:01;5.33;;;4.57;;
15049;SDS011;7622;42.724;23.250;2023-05-10T02:56:35;4.77;;;4.33;;
15049;SDS011;7622;42.724;23.250;2023-05-10T02:59:06;4.17;;;3.87;;
15049;SDS011;7622;42.724;23.250;2023-05-10T03:01:32;4.83;;;4.37;;
15049;SDS011;7622;42.724;23.250;2023-05-10T03:03:59;5.43;;;4.93;;
15049;SDS011;7622;42.724;23.250;2023-05-10T03:06:26;4.80;;;4.40;;
15049;SDS011;7622;42.724;23.250;2023-05-10T03:08:53;5.57;;;4.20;;
15049;SDS011;7622;42.724;23.250;2023-05-10T03:11:28;4.73;;;4.33;;
15049;SDS011;7622;42.724;23.250;2023-05-10T03:14:10;3.57;;;3.37;;
15049;SDS011;7622;42.724;23.250;2023-05-10T03:16:45;5.10;;;4.47;;
15049;SDS011;7622;42.724;23.250;2023-05-10T03:19:16;7.67;;;4.50;;
15049;SDS011;7622;42.724;23.250;2023-05-10T03:21:47;4.20;;;3.90;;
15049;SDS011;7622;42.724;23.250;2023-05-10T03:24:17;4.50;;;4.17;;
15049;SDS011;7622;42.724;23.250;2023-05-10T03:26:49;4.97;;;4.53;;
15049;SDS011;7622;42.724;23.250;2023-05-10T03:29:19;5.50;;;4.73;;
15049;SDS011;7622;42.724;23.250;2023-05-10T03:31:48;6.27;;;4.97;;
15049;SDS011;7622;42.724;23.250;2023-05-10T03:34:14;6.10;;;5.27;;
15049;SDS011;7622;42.724;23.250;2023-05-10T03:36:42;7.27;;;5.40;;
15049;SDS011;7622;42.724;23.250;2023-05-10T03:39:09;5.47;;;5.03;;
15049;SDS011;7622;42.724;23.250;2023-05-10T03:41:36;5.83;;;5.20;;
15049;SDS011;7622;42.724;23.250;2023-05-10T03:44:04;5.80;;;5.20;;
15049;SDS011;7622;42.724;23.250;2023-05-10T03:46:31;5.70;;;5.20;;
15049;SDS011;7622;42.724;23.250;2023-05-10T03:49:01;5.43;;;5.00;;
15049;SDS011;7622;42.724;23.250;2023-05-10T03:51:30;4.50;;;4.10;;
15049;SDS011;7622;42.724;23.250;2023-05-10T03:53:57;5.13;;;4.63;;
15049;SDS011;7622;42.724;23.250;2023-05-10T03:56:24;5.83;;;5.23;;
15049;SDS011;7622;42.724;23.250;2023-05-10T03:58:50;9.23;;;4.60;;
15049;SDS011;7622;42.724;23.250;2023-05-10T04:01:19;5.40;;;4.90;;
15049;SDS011;7622;42.724;23.250;2023-05-10T04:03:45;5.33;;;4.90;;
15049;SDS011;7622;42.724;23.250;2023-05-10T04:06:12;5.17;;;4.67;;
15049;SDS011;7622;42.724;23.250;2023-05-10T04:08:39;5.60;;;5.10;;
15049;SDS011;7622;42.724;23.250;2023-05-10T04:11:06;5.43;;;5.03;;
15049;SDS011;7622;42.724;23.250;2023-05-10T04:13:33;7.40;;;4.97;;
15049;SDS011;7622;42.724;23.250;2023-05-10T04:16:00;5.10;;;4.60;;
15049;SDS011;7622;42.724;23.250;2023-05-10T04:18:29;5.77;;;5.30;;
15049;SDS011;7622;42.724;23.250;2023-05-10T04:20:56;5.20;;;4.50;;
15049;SDS011;7622;42.724;23.250;2023-05-10T04:23:23;6.10;;;5.50;;
15049;SDS011;7622;42.724;23.250;2023-05-10T04:25:50;6.10;;;4.93;;
15049;SDS011;7622;42.724;23.250;2023-05-10T04:28:17;5.73;;;5.03;;
15049;SDS011;7622;42.724;23.250;2023-05-10T04:30:43;5.93;;;5.50;;
15049;SDS011;7622;42.724;23.250;2023-05-10T04:33:10;5.67;;;5.00;;
15049;SDS011;7622;42.724;23.250;2023-05-10T04:35:38;4.67;;;4.37;;
15049;SDS011;7622;42.724;23.250;2023-05-10T04:38:05;7.90;;;5.07;;
15049;SDS011;7622;42.724;23.250;2023-05-10T04:40:32;8.90;;;5.03;;
15049;SDS011;7622;42.724;23.250;2023-05-10T04:42:59;5.00;;;4.50;;
15049;SDS011;7622;42.724;23.250;2023-05-10T04:45:26;6.33;;;5.60;;
15049;SDS011;7622;42.724;23.250;2023-05-10T04:47:52;5.57;;;5.13;;
15049;SDS011;7622;42.724;23.250;2023-05-10T04:50:19;5.80;;;5.20;;
15049;SDS011;7622;42.724;23.250;2023-05-10T04:52:47;6.33;;;5.50;;
15049;SDS011;7622;42.724;23.250;2023-05-10T04:55:14;7.17;;;5.40;;
15049;SDS011;7622;42.724;23.250;2023-05-10T04:57:41;5.50;;;4.93;;
15049;SDS011;7622;42.724;23.250;2023-05-10T05:00:08;6.37;;;4.80;;
15049;SDS011;7622;42.724;23.250;2023-05-10T05:02:35;6.40;;;5.67;;
15049;SDS011;7622;42.724;23.250;2023-05-10T05:05:02;5.43;;;4.47;;
15049;SDS011;7622;42.724;23.250;2023-05-10T05:07:29;7.03;;;5.30;;
15049;SDS011;7622;42.724;23.250;2023-05-10T05:09:58;6.10;;;5.43;;
15049;SDS011;7622;42.724;23.250;2023-05-10T05:12:24;7.97;;;5.80;;
15049;SDS011;7622;42.724;23.250;2023-05-10T05:14:51;6.20;;;5.63;;
15049;SDS011;7622;42.724;23.250;2023-05-10T05:17:18;6.33;;;5.67;;
15049;SDS011;7622;42.724;23.250;2023-05-10T05:19:44;6.97;;;6.40;;
15049;SDS011;7622;42.724;23.250;2023-05-10T05:22:11;6.70;;;6.10;;
15049;SDS011;7622;42.724;23.250;2023-05-10T05:24:38;8.20;;;6.07;;
15049;SDS011;7622;42.724;23.250;2023-05-10T05:27:06;7.10;;;6.40;;
15049;SDS011;7622;42.724;23.250;2023-05-10T05:29:33;7.40;;;5.97;;
15049;SDS011;7622;42.724;23.250;2023-05-10T05:32:00;7.93;;;6.57;;
15049;SDS011;7622;42.724;23.250;2023-05-10T05:34:26;7.00;;;6.40;;
15049;SDS011;7622;42.724;23.250;2023-05-10T05:36:53;11.33;;;7.10;;
15049;SDS011;7622;42.724;23.250;2023-05-10T05:39:20;13.17;;;6.57;;
15049;SDS011;7622;42.724;23.250;2023-05-10T05:41:47;9.43;;;7.37;;
15049;SDS011;7622;42.724;23.250;2023-05-10T05:44:15;8.53;;;6.90;;
15049;SDS011;7622;42.724;23.250;2023-05-10T05:46:42;8.23;;;6.67;;
15049;SDS011;7622;42.724;23.250;2023-05-10T05:49:09;7.00;;;6.30;;
15049;SDS011;7622;42.724;23.250;2023-05-10T05:51:36;6.73;;;6.00;;
15049;SDS011;7622;42.724;23.250;2023-05-10T05:54:02;8.10;;;7.00;;
15049;SDS011;7622;42.724;23.250;2023-05-10T05:56:29;8.60;;;7.70;;
15049;SDS011;7622;42.724;23.250;2023-05-10T05:58:56;6.87;;;6.23;;
15049;SDS011;7622;42.724;23.250;2023-05-10T06:01:24;8.27;;;7.47;;
15049;SDS011;7622;42.724;23.250;2023-05-10T06:03:51;8.33;;;7.47;;
15049;SDS011;7622;42.724;23.250;2023-05-10T06:06:18;10.47;;;7.63;;
15049;SDS011;7622;42.724;23.250;2023-05-10T06:08:45;11.83;;;8.03;;
15049;SDS011;7622;42.724;23.250;2023-05-10T06:11:11;9.07;;;8.17;;
15049;SDS011;7622;42.724;23.250;2023-05-10T06:13:38;11.97;;;6.80;;
15049;SDS011;7622;42.724;23.250;2023-05-10T06:16:05;7.60;;;6.07;;
15049;SDS011;7622;42.724;23.250;2023-05-10T06:18:33;10.73;;;6.90;;
15049;SDS011;7622;42.724;23.250;2023-05-10T06:21:01;11.70;;;9.57;;
15049;SDS011;7622;42.724;23.250;2023-05-10T06:23:27;8.90;;;7.23;;
15049;SDS011;7622;42.724;23.250;2023-05-10T06:25:54;8.33;;;7.53;;
15049;SDS011;7622;42.724;23.250;2023-05-10T06:28:21;9.90;;;5.97;;
15049;SDS011;7622;42.724;23.250;2023-05-10T06:30:48;9.27;;;7.30;;
15049;SDS011;7622;42.724;23.250;2023-05-10T06:33:14;7.73;;;7.03;;
15049;SDS011;7622;42.724;23.250;2023-05-10T06:35:43;8.53;;;7.70;;
15049;SDS011;7622;42.724;23.250;2023-05-10T06:38:09;6.87;;;6.23;;
15049;SDS011;7622;42.724;23.250;2023-05-10T06:40:36;9.83;;;6.97;;
15049;SDS011;7622;42.724;23.250;2023-05-10T06:43:03;8.13;;;6.20;;
15049;SDS011;7622;42.724;23.250;2023-05-10T06:45:30;8.00;;;6.30;;
15049;SDS011;7622;42.724;23.250;2023-05-10T06:47:57;8.93;;;6.60;;
15049;SDS011;7622;42.724;23.250;2023-05-10T06:50:24;8.00;;;6.27;;
15049;SDS011;7622;42.724;23.250;2023-05-10T06:52:52;6.60;;;6.00;;
15049;SDS011;7622;42.724;23.250;2023-05-10T06:55:19;7.93;;;7.13;;
15049;SDS011;7622;42.724;23.250;2023-05-10T06:57:46;6.77;;;6.20;;
15049;SDS011;7622;42.724;23.250;2023-05-10T07:00:13;8.87;;;6.63;;
15049;SDS011;7622;42.724;23.250;2023-05-10T07:02:40;7.33;;;6.73;;
15049;SDS011;7622;42.724;23.250;2023-05-10T07:05:07;7.30;;;6.03;;
15049;SDS011;7622;42.724;23.250;2023-05-10T07:07:35;7.87;;;7.03;;
15049;SDS011;7622;42.724;23.250;2023-05-10T07:10:03;8.57;;;6.50;;
15049;SDS011;7622;42.724;23.250;2023-05-10T07:12:30;7.33;;;6.63;;
15049;SDS011;7622;42.724;23.250;2023-05-10T07:14:57;8.57;;;6.83;;
15049;SDS011;7622;42.724;23.250;2023-05-10T07:17:24;8.77;;;7.83;;
15049;SDS011;7622;42.724;23.250;2023-05-10T07:19:50;6.87;;;6.27;;
15049;SDS011;7622;42.724;23.250;2023-05-10T07:22:17;6.73;;;6.13;;
15049;SDS011;7622;42.724;23.250;2023-05-10T07:24:44;8.23;;;7.37;;
15049;SDS011;7622;42.724;23.250;2023-05-10T07:27:12;8.40;;;7.50;;
15049;SDS011;7622;42.724;23.250;2023-05-10T07:29:39;7.10;;;6.40;;
15049;SDS011;7622;42.724;23.250;2023-05-10T07:32:06;7.60;;;6.87;;
15049;SDS011;7622;42.724;23.250;2023-05-10T07:34:32;7.27;;;6.57;;
15049;SDS011;7622;42.724;23.250;2023-05-10T07:36:59;8.83;;;7.20;;
15049;SDS011;7622;42.724;23.250;2023-05-10T07:39:27;7.77;;;6.53;;
15049;SDS011;7622;42.724;23.250;2023-05-10T07:41:54;7.83;;;6.10;;
15049;SDS011;7622;42.724;23.250;2023-05-10T07:44:23;9.53;;;5.97;;
15049;SDS011;7622;42.724;23.250;2023-05-10T07:46:49;8.13;;;6.73;;
15049;SDS011;7622;42.724;23.250;2023-05-10T07:49:17;6.47;;;5.97;;
15049;SDS011;7622;42.724;23.250;2023-05-10T07:51:44;8.23;;;5.93;;
15049;SDS011;7622;42.724;23.250;2023-05-10T07:54:10;8.80;;;5.97;;
15049;SDS011;7622;42.724;23.250;2023-05-10T07:56:37;6.90;;;6.20;;
15049;SDS011;7622;42.724;23.250;2023-05-10T07:59:05;9.27;;;7.27;;
15049;SDS011;7622;42.724;23.250;2023-05-10T08:01:34;6.23;;;5.73;;
15049;SDS011;7622;42.724;23.250;2023-05-10T08:04:00;8.53;;;7.73;;
15049;SDS011;7622;42.724;23.250;2023-05-10T08:06:27;7.90;;;6.97;;
15049;SDS011;7622;42.724;23.250;2023-05-10T08:08:55;8.30;;;7.50;;
15049;SDS011;7622;42.724;23.250;2023-05-10T08:11:22;8.40;;;7.57;;
15049;SDS011;7622;42.724;23.250;2023-05-10T08:13:49;11.87;;;8.13;;
15049;SDS011;7622;42.724;23.250;2023-05-10T08:16:17;10.27;;;7.97;;
15049;SDS011;7622;42.724;23.250;2023-05-10T08:18:45;8.57;;;7.70;;
15049;SDS011;7622;42.724;23.250;2023-05-10T08:21:14;8.33;;;7.47;;
15049;SDS011;7622;42.724;23.250;2023-05-10T08:23:41;9.43;;;7.50;;
15049;SDS011;7622;42.724;23.250;2023-05-10T08:26:08;11.03;;;7.90;;
15049;SDS011;7622;42.724;23.250;2023-05-10T08:28:35;9.10;;;8.27;;
15049;SDS011;7622;42.724;23.250;2023-05-10T08:31:02;8.70;;;7.47;;
15049;SDS011;7622;42.724;23.250;2023-05-10T08:33:29;8.10;;;7.50;;
15049;SDS011;7622;42.724;23.250;2023-05-10T08:35:57;7.83;;;6.93;;
15049;SDS011;7622;42.724;23.250;2023-05-10T08:38:23;8.10;;;7.40;;
15049;SDS011;7622;42.724;23.250;2023-05-10T08:40:50;8.57;;;6.57;;
15049;SDS011;7622;42.724;23.250;2023-05-10T08:43:21;9.27;;;7.47;;
15049;SDS011;7622;42.724;23.250;2023-05-10T08:45:50;9.17;;;7.73;;
15049;SDS011;7622;42.724;23.250;2023-05-10T08:48:20;8.67;;;7.67;;
15049;SDS011;7622;42.724;23.250;2023-05-10T08:50:49;10.20;;;6.87;;
15049;SDS011;7622;42.724;23.250;2023-05-10T08:53:21;7.87;;;7.17;;
15049;SDS011;7622;42.724;23.250;2023-05-10T08:55:51;8.17;;;7.40;;
15049;SDS011;7622;42.724;23.250;2023-05-10T08:58:19;6.93;;;6.33;;
15049;SDS011;7622;42.724;23.250;2023-05-10T09:00:49;7.83;;;7.13;;
15049;SDS011;7622;42.724;23.250;2023-05-10T09:03:17;8.43;;;7.63;;
15049;SDS011;7622;42.724;23.250;2023-05-10T09:05:44;7.97;;;7.37;;
15049;SDS011;7622;42.724;23.250;2023-05-10T09:08:11;8.37;;;7.67;;
15049;SDS011;7622;42.724;23.250;2023-05-10T09:10:40;7.07;;;6.47;;
15049;SDS011;7622;42.724;23.250;2023-05-10T09:13:08;7.67;;;7.07;;
15049;SDS011;7622;42.724;23.250;2023-05-10T09:15:36;8.43;;;7.63;;
15049;SDS011;7622;42.724;23.250;2023-05-10T09:18:03;8.40;;;7.60;;
15049;SDS011;7622;42.724;23.250;2023-05-10T09:20:30;7.60;;;6.87;;
15049;SDS011;7622;42.724;23.250;2023-05-10T09:22:57;8.13;;;7.53;;
15049;SDS011;7622;42.724;23.250;2023-05-10T09:25:24;8.57;;;7.60;;
15049;SDS011;7622;42.724;23.250;2023-05-10T09:27:52;7.63;;;6.93;;
15049;SDS011;7622;42.724;23.250;2023-05-10T09:30:23;6.77;;;6.20;;
15049;SDS011;7622;42.724;23.250;2023-05-10T09:32:51;10.60;;;6.53;;
15049;SDS011;7622;42.724;23.250;2023-05-10T09:35:19;7.77;;;6.90;;
15049;SDS011;7622;42.724;23.250;2023-05-10T09:37:48;9.97;;;8.27;;
15049;SDS011;7622;42.724;23.250;2023-05-10T09:40:17;9.63;;;8.73;;
15049;SDS011;7622;42.724;23.250;2023-05-10T09:42:52;8.63;;;7.83;;
15049;SDS011;7622;42.724;23.250;2023-05-10T09:45:20;7.07;;;6.03;;
15049;SDS011;7622;42.724;23.250;2023-05-10T09:47:47;9.20;;;8.40;;
15049;SDS011;7622;42.724;23.250;2023-05-10T09:50:14;7.67;;;6.60;;
15049;SDS011;7622;42.724;23.250;2023-05-10T09:52:48;8.53;;;7.73;;
15049;SDS011;7622;42.724;23.250;2023-05-10T09:55:18;10.07;;;7.43;;
15049;SDS011;7622;42.724;23.250;2023-05-10T09:57:46;8.07;;;7.27;;
15049;SDS011;7622;42.724;23.250;2023-05-10T10:00:18;9.10;;;8.33;;
15049;SDS011;7622;42.724;23.250;2023-05-10T10:02:47;8.90;;;8.10;;
15049;SDS011;7622;42.724;23.250;2023-05-10T10:05:14;9.30;;;8.50;;
15049;SDS011;7622;42.724;23.250;2023-05-10T10:07:41;8.90;;;8.10;;
15049;SDS011;7622;42.724;23.250;2023-05-10T10:10:09;8.27;;;7.57;;
15049;SDS011;7622;42.724;23.250;2023-05-10T10:12:39;8.60;;;7.80;;
15049;SDS011;7622;42.724;23.250;2023-05-10T10:15:11;7.23;;;6.67;;
15049;SDS011;7622;42.724;23.250;2023-05-10T10:17:41;7.23;;;6.63;;
15049;SDS011;7622;42.724;23.250;2023-05-10T10:20:10;7.13;;;6.50;;
15049;SDS011;7622;42.724;23.250;2023-05-10T10:22:37;7.63;;;6.60;;
15049;SDS011;7622;42.724;23.250;2023-05-10T10:25:05;7.87;;;6.97;;
15049;SDS011;7622;42.724;23.250;2023-05-10T10:27:37;9.17;;;8.27;;
15049;SDS011;7622;42.724;23.250;2023-05-10T10:30:15;9.43;;;8.00;;
15049;SDS011;7622;42.724;23.250;2023-05-10T10:35:57;8.63;;;7.53;;
15049;SDS011;7622;42.724;23.250;2023-05-10T10:38:27;7.27;;;6.67;;
15049;SDS011;7622;42.724;23.250;2023-05-10T10:41:03;11.83;;;7.50;;
15049;SDS011;7622;42.724;23.250;2023-05-10T10:43:35;11.37;;;7.50;;
15049;SDS011;7622;42.724;23.250;2023-05-10T10:46:09;7.80;;;7.10;;
15049;SDS011;7622;42.724;23.250;2023-05-10T10:48:39;8.27;;;7.53;;
15049;SDS011;7622;42.724;23.250;2023-05-10T10:51:06;10.73;;;6.50;;
15049;SDS011;7622;42.724;23.250;2023-05-10T10:53:33;7.83;;;7.10;;
15049;SDS011;7622;42.724;23.250;2023-05-10T10:56:06;6.47;;;5.80;;
15049;SDS011;7622;42.724;23.250;2023-05-10T10:58:34;8.17;;;6.57;;
15049;SDS011;7622;42.724;23.250;2023-05-10T11:01:10;10.77;;;6.30;;
15049;SDS011;7622;42.724;23.250;2023-05-10T11:03:39;8.80;;;6.30;;
15049;SDS011;7622;42.724;23.250;2023-05-10T11:06:06;9.17;;;6.80;;
15049;SDS011;7622;42.724;23.250;2023-05-10T11:08:34;5.83;;;5.33;;
15049;SDS011;7622;42.724;23.250;2023-05-10T11:11:07;5.73;;;5.33;;
15049;SDS011;7622;42.724;23.250;2023-05-10T11:13:36;8.10;;;7.40;;
15049;SDS011;7622;42.724;23.250;2023-05-10T11:16:11;7.77;;;5.63;;
15049;SDS011;7622;42.724;23.250;2023-05-10T11:18:41;5.97;;;5.47;;
15049;SDS011;7622;42.724;23.250;2023-05-10T11:21:19;6.87;;;5.53;;
15049;SDS011;7622;42.724;23.250;2023-05-10T11:23:49;7.87;;;6.00;;
15049;SDS011;7622;42.724;23.250;2023-05-10T11:26:21;8.67;;;6.77;;
15049;SDS011;7622;42.724;23.250;2023-05-10T11:28:51;7.03;;;6.07;;
15049;SDS011;7622;42.724;23.250;2023-05-10T11:31:20;6.57;;;5.80;;
15049;SDS011;7622;42.724;23.250;2023-05-10T11:33:49;7.83;;;6.03;;
15049;SDS011;7622;42.724;23.250;2023-05-10T11:36:18;9.10;;;5.87;;
15049;SDS011;7622;42.724;23.250;2023-05-10T11:38:46;7.23;;;6.10;;
15049;SDS011;7622;42.724;23.250;2023-05-10T11:41:14;10.10;;;6.20;;
15049;SDS011;7622;42.724;23.250;2023-05-10T11:43:43;7.03;;;5.63;;
15049;SDS011;7622;42.724;23.250;2023-05-10T11:46:13;6.60;;;6.00;;
15049;SDS011;7622;42.724;23.250;2023-05-10T11:48:40;7.63;;;6.17;;
15049;SDS011;7622;42.724;23.250;2023-05-10T11:51:09;8.30;;;6.27;;
15049;SDS011;7622;42.724;23.250;2023-05-10T11:53:37;6.17;;;5.63;;
15049;SDS011;7622;42.724;23.250;2023-05-10T11:56:04;6.17;;;4.97;;
15049;SDS011;7622;42.724;23.250;2023-05-10T11:58:31;8.47;;;6.30;;
15049;SDS011;7622;42.724;23.250;2023-05-10T12:00:59;5.53;;;5.13;;
15049;SDS011;7622;42.724;23.250;2023-05-10T12:03:26;5.70;;;5.30;;
15049;SDS011;7622;42.724;23.250;2023-05-10T12:05:53;7.03;;;6.00;;
15049;SDS011;7622;42.724;23.250;2023-05-10T12:08:22;7.20;;;5.63;;
15049;SDS011;7622;42.724;23.250;2023-05-10T12:10:50;8.27;;;6.10;;
15049;SDS011;7622;42.724;23.250;2023-05-10T12:13:18;6.63;;;6.13;;
15049;SDS011;7622;42.724;23.250;2023-05-10T12:15:46;6.43;;;5.60;;
15049;SDS011;7622;42.724;23.250;2023-05-10T12:18:13;7.70;;;6.43;;
15049;SDS011;7622;42.724;23.250;2023-05-10T12:20:40;6.57;;;5.97;;
15049;SDS011;7622;42.724;23.250;2023-05-10T12:23:08;8.03;;;6.77;;
15049;SDS011;7622;42.724;23.250;2023-05-10T12:25:37;7.40;;;5.63;;
15049;SDS011;7622;42.724;23.250;2023-05-10T12:28:05;6.57;;;6.07;;
15049;SDS011;7622;42.724;23.250;2023-05-10T12:30:34;6.47;;;5.87;;
15049;SDS011;7622;42.724;23.250;2023-05-10T12:33:06;7.53;;;6.30;;
15049;SDS011;7622;42.724;23.250;2023-05-10T12:35:42;7.53;;;6.83;;
15049;SDS011;7622;42.724;23.250;2023-05-10T12:38:26;6.67;;;6.13;;
15049;SDS011;7622;42.724;23.250;2023-05-10T12:40:57;5.93;;;5.53;;
15049;SDS011;7622;42.724;23.250;2023-05-10T12:43:24;21.20;;;8.90;;
15049;SDS011;7622;42.724;23.250;2023-05-10T12:45:51;8.57;;;6.43;;
15049;SDS011;7622;42.724;23.250;2023-05-10T12:48:18;7.13;;;6.20;;
15049;SDS011;7622;42.724;23.250;2023-05-10T12:50:45;8.27;;;6.97;;
15049;SDS011;7622;42.724;23.250;2023-05-10T12:53:12;9.37;;;7.20;;
15049;SDS011;7622;42.724;23.250;2023-05-10T12:55:40;10.47;;;7.27;;
15049;SDS011;7622;42.724;23.250;2023-05-10T12:58:08;6.80;;;6.20;;
15049;SDS011;7622;42.724;23.250;2023-05-10T13:00:35;7.83;;;6.47;;
15049;SDS011;7622;42.724;23.250;2023-05-10T13:03:03;7.70;;;7.00;;
15049;SDS011;7622;42.724;23.250;2023-05-10T13:05:30;7.50;;;6.80;;
15049;SDS011;7622;42.724;23.250;2023-05-10T13:07:57;10.77;;;7.47;;
15049;SDS011;7622;42.724;23.250;2023-05-10T13:10:23;7.00;;;6.33;;
15049;SDS011;7622;42.724;23.250;2023-05-10T13:12:50;7.53;;;6.50;;
15049;SDS011;7622;42.724;23.250;2023-05-10T13:15:19;7.57;;;6.87;;
15049;SDS011;7622;42.724;23.250;2023-05-10T13:17:45;9.33;;;7.00;;
15049;SDS011;7622;42.724;23.250;2023-05-10T13:20:12;7.00;;;6.50;;
15049;SDS011;7622;42.724;23.250;2023-05-10T13:22:39;7.40;;;6.80;;
15049;SDS011;7622;42.724;23.250;2023-05-10T13:25:07;10.30;;;6.43;;
15049;SDS011;7622;42.724;23.250;2023-05-10T13:27:34;7.00;;;6.30;;
15049;SDS011;7622;42.724;23.250;2023-05-10T13:30:01;12.80;;;7.80;;
15049;SDS011;7622;42.724;23.250;2023-05-10T13:32:29;6.97;;;6.27;;
15049;SDS011;7622;42.724;23.250;2023-05-10T13:34:56;8.70;;;7.10;;
15049;SDS011;7622;42.724;23.250;2023-05-10T13:37:23;7.50;;;6.90;;
15049;SDS011;7622;42.724;23.250;2023-05-10T13:39:50;9.60;;;6.43;;
15049;SDS011;7622;42.724;23.250;2023-05-10T13:42:16;8.43;;;6.90;;
15049;SDS011;7622;42.724;23.250;2023-05-10T13:44:43;8.70;;;7.27;;
15049;SDS011;7622;42.724;23.250;2023-05-10T13:47:10;9.77;;;7.00;;
15049;SDS011;7622;42.724;23.250;2023-05-10T13:49:38;10.50;;;7.37;;
15049;SDS011;7622;42.724;23.250;2023-05-10T13:52:05;6.90;;;6.40;;
15049;SDS011;7622;42.724;23.250;2023-05-10T13:54:32;9.30;;;6.50;;
15049;SDS011;7622;42.724;23.250;2023-05-10T13:56:59;7.50;;;6.63;;
15049;SDS011;7622;42.724;23.250;2023-05-10T13:59:25;5.77;;;5.37;;
15049;SDS011;7622;42.724;23.250;2023-05-10T14:01:52;5.43;;;5.03;;
15049;SDS011;7622;42.724;23.250;2023-05-10T14:04:19;7.83;;;6.50;;
15049;SDS011;7622;42.724;23.250;2023-05-10T14:06:47;7.97;;;6.50;;
15049;SDS011;7622;42.724;23.250;2023-05-10T14:09:14;9.60;;;6.57;;
15049;SDS011;7622;42.724;23.250;2023-05-10T14:11:41;8.50;;;6.33;;
15049;SDS011;7622;42.724;23.250;2023-05-10T14:14:08;8.13;;;7.30;;
15049;SDS011;7622;42.724;23.250;2023-05-10T14:16:35;7.47;;;6.60;;
15049;SDS011;7622;42.724;23.250;2023-05-10T14:19:01;7.67;;;6.97;;
15049;SDS011;7622;42.724;23.250;2023-05-10T14:21:28;8.07;;;7.13;;
15049;SDS011;7622;42.724;23.250;2023-05-10T14:23:57;7.77;;;6.73;;
15049;SDS011;7622;42.724;23.250;2023-05-10T14:26:23;6.43;;;5.93;;
15049;SDS011;7622;42.724;23.250;2023-05-10T14:28:51;8.07;;;7.27;;
15049;SDS011;7622;42.724;23.250;2023-05-10T14:31:18;11.13;;;7.30;;
15049;SDS011;7622;42.724;23.250;2023-05-10T14:33:45;10.27;;;7.37;;
15049;SDS011;7622;42.724;23.250;2023-05-10T14:36:12;7.23;;;6.60;;
15049;SDS011;7622;42.724;23.250;2023-05-10T14:38:39;7.60;;;6.70;;
15049;SDS011;7622;42.724;23.250;2023-05-10T14:41:07;8.47;;;7.30;;
15049;SDS011;7622;42.724;23.250;2023-05-10T14:43:39;9.40;;;7.40;;
15049;SDS011;7622;42.724;23.250;2023-05-10T14:46:06;8.33;;;5.97;;
15049;SDS011;7622;42.724;23.250;2023-05-10T14:48:33;8.70;;;7.80;;
15049;SDS011;7622;42.724;23.250;2023-05-10T14:51:00;7.33;;;6.50;;
15049;SDS011;7622;42.724;23.250;2023-05-10T14:53:27;7.27;;;6.57;;
15049;SDS011;7622;42.724;23.250;2023-05-10T14:55:54;8.57;;;7.43;;